sensor_id;sensor_type;location;lat;lon;timestamp;P1;durP1;ratioP1;P2;durP2;ratioP2
75423;SDS011;64005;55.160;36.002;2023-01-04T00:00:39;0.00;;;0.00;;
75423;SDS011;64005;55.160;36.002;2023-01-04T00:03:06;0.63;;;0.10;;
75423;SDS011;64005;55.160;36.002;2023-01-04T00:05:35;0.00;;;0.00;;
75423;SDS011;64005;55.160;36.002;2023-01-04T00:08:03;0.10;;;0.05;;
75423;SDS011;64005;55.160;36.002;2023-01-04T00:10:30;0.82;;;0.10;;
75423;SDS011;64005;55.160;36.002;2023-01-04T00:12:58;0.35;;;0.10;;
75423;SDS011;64005;55.160;36.002;2023-01-04T00:15:25;0.68;;;0.20;;
75423;SDS011;64005;55.160;36.002;2023-01-04T00:17:53;2.53;;;1.00;;
75423;SDS011;64005;55.160;36.002;2023-01-04T00:20:21;0.77;;;0.10;;
75423;SDS011;64005;55.160;36.002;2023-01-04T00:22:50;0.10;;;0.10;;
75423;SDS011;64005;55.160;36.002;2023-01-04T00:25:18;0.10;;;0.10;;
75423;SDS011;64005;55.160;36.002;2023-01-04T00:27:45;0.17;;;0.10;;
75423;SDS011;64005;55.160;36.002;2023-01-04T00:30:32;0.13;;;0.00;;
75423;SDS011;64005;55.160;36.002;2023-01-04T00:32:59;0.88;;;0.20;;
75423;SDS011;64005;55.160;36.002;2023-01-04T00:35:27;0.00;;;0.00;;
75423;SDS011;64005;55.160;36.002;2023-01-04T00:37:56;0.00;;;0.00;;
75423;SDS011;64005;55.160;36.002;2023-01-04T00:40:23;0.15;;;0.10;;
75423;SDS011;64005;55.160;36.002;2023-01-04T00:42:51;0.63;;;0.10;;
75423;SDS011;64005;55.160;36.002;2023-01-04T00:45:18;0.30;;;0.05;;
75423;SDS011;64005;55.160;36.002;2023-01-04T00:47:46;0.43;;;0.15;;
75423;SDS011;64005;55.160;36.002;2023-01-04T00:50:13;0.38;;;0.10;;
75423;SDS011;64005;55.160;36.002;2023-01-04T00:52:41;0.03;;;0.03;;
75423;SDS011;64005;55.160;36.002;2023-01-04T00:55:10;0.00;;;0.00;;
75423;SDS011;64005;55.160;36.002;2023-01-04T00:57:38;0.10;;;0.05;;
75423;SDS011;64005;55.160;36.002;2023-01-04T01:00:06;0.90;;;0.03;;
75423;SDS011;64005;55.160;36.002;2023-01-04T01:02:34;0.15;;;0.00;;
75423;SDS011;64005;55.160;36.002;2023-01-04T01:05:01;0.15;;;0.10;;
75423;SDS011;64005;55.160;36.002;2023-01-04T01:07:29;0.00;;;0.00;;
75423;SDS011;64005;55.160;36.002;2023-01-04T01:09:57;1.30;;;0.13;;
75423;SDS011;64005;55.160;36.002;2023-01-04T01:12:26;0.20;;;0.08;;
75423;SDS011;64005;55.160;36.002;2023-01-04T01:14:54;0.17;;;0.05;;
75423;SDS011;64005;55.160;36.002;2023-01-04T01:17:21;0.10;;;0.10;;
75423;SDS011;64005;55.160;36.002;2023-01-04T01:19:48;0.10;;;0.00;;
75423;SDS011;64005;55.160;36.002;2023-01-04T01:22:16;0.00;;;0.00;;
75423;SDS011;64005;55.160;36.002;2023-01-04T01:24:44;0.10;;;0.00;;
75423;SDS011;64005;55.160;36.002;2023-01-04T01:29:45;0.30;;;0.10;;
75423;SDS011;64005;55.160;36.002;2023-01-04T01:32:13;0.70;;;0.05;;
75423;SDS011;64005;55.160;36.002;2023-01-04T01:34:41;0.28;;;0.03;;
75423;SDS011;64005;55.160;36.002;2023-01-04T01:37:08;0.15;;;0.08;;
75423;SDS011;64005;55.160;36.002;2023-01-04T01:39:36;0.60;;;0.20;;
75423;SDS011;64005;55.160;36.002;2023-01-04T01:42:04;0.10;;;0.00;;
75423;SDS011;64005;55.160;36.002;2023-01-04T01:47:32;0.00;;;0.00;;
75423;SDS011;64005;55.160;36.002;2023-01-04T01:50:05;0.55;;;0.50;;
75423;SDS011;64005;55.160;36.002;2023-01-04T01:52:44;0.30;;;0.13;;
75423;SDS011;64005;55.160;36.002;2023-01-04T01:55:13;1.02;;;0.32;;
75423;SDS011;64005;55.160;36.002;2023-01-04T01:57:42;0.90;;;0.30;;
75423;SDS011;64005;55.160;36.002;2023-01-04T02:00:14;1.60;;;0.40;;
75423;SDS011;64005;55.160;36.002;2023-01-04T02:02:43;1.15;;;0.47;;
75423;SDS011;64005;55.160;36.002;2023-01-04T02:05:16;1.42;;;0.43;;
75423;SDS011;64005;55.160;36.002;2023-01-04T02:07:46;1.27;;;0.43;;
75423;SDS011;64005;55.160;36.002;2023-01-04T02:10:15;2.65;;;0.80;;
75423;SDS011;64005;55.160;36.002;2023-01-04T02:12:43;3.58;;;0.85;;
75423;SDS011;64005;55.160;36.002;2023-01-04T02:15:13;2.63;;;0.90;;
75423;SDS011;64005;55.160;36.002;2023-01-04T02:17:43;1.42;;;0.45;;
75423;SDS011;64005;55.160;36.002;2023-01-04T02:23:15;1.35;;;0.50;;
75423;SDS011;64005;55.160;36.002;2023-01-04T02:26:09;0.60;;;0.30;;
75423;SDS011;64005;55.160;36.002;2023-01-04T02:29:11;2.80;;;1.02;;
75423;SDS011;64005;55.160;36.002;2023-01-04T02:32:05;1.88;;;0.80;;
75423;SDS011;64005;55.160;36.002;2023-01-04T02:34:41;2.35;;;1.00;;
75423;SDS011;64005;55.160;36.002;2023-01-04T02:37:17;1.52;;;0.63;;
75423;SDS011;64005;55.160;36.002;2023-01-04T02:39:54;4.05;;;1.15;;
75423;SDS011;64005;55.160;36.002;2023-01-04T02:45:21;3.45;;;1.00;;
75423;SDS011;64005;55.160;36.002;2023-01-04T02:47:54;4.00;;;1.40;;
75423;SDS011;64005;55.160;36.002;2023-01-04T02:50:40;2.03;;;1.00;;
75423;SDS011;64005;55.160;36.002;2023-01-04T02:53:18;2.83;;;1.05;;
75423;SDS011;64005;55.160;36.002;2023-01-04T02:55:50;4.15;;;1.80;;
75423;SDS011;64005;55.160;36.002;2023-01-04T02:58:31;3.90;;;1.45;;
75423;SDS011;64005;55.160;36.002;2023-01-04T03:01:12;4.40;;;1.33;;
75423;SDS011;64005;55.160;36.002;2023-01-04T03:04:08;3.28;;;1.30;;
75423;SDS011;64005;55.160;36.002;2023-01-04T03:07:06;2.90;;;1.20;;
75423;SDS011;64005;55.160;36.002;2023-01-04T03:09:41;4.75;;;1.33;;
75423;SDS011;64005;55.160;36.002;2023-01-04T03:12:17;4.22;;;1.65;;
75423;SDS011;64005;55.160;36.002;2023-01-04T03:15:02;5.70;;;2.15;;
75423;SDS011;64005;55.160;36.002;2023-01-04T03:17:37;4.68;;;1.52;;
75423;SDS011;64005;55.160;36.002;2023-01-04T03:20:10;4.47;;;1.20;;
75423;SDS011;64005;55.160;36.002;2023-01-04T03:22:42;4.65;;;1.65;;
75423;SDS011;64005;55.160;36.002;2023-01-04T03:25:30;2.58;;;1.00;;
75423;SDS011;64005;55.160;36.002;2023-01-04T03:28:20;2.28;;;0.95;;
75423;SDS011;64005;55.160;36.002;2023-01-04T03:31:10;3.97;;;1.23;;
75423;SDS011;64005;55.160;36.002;2023-01-04T03:33:57;2.78;;;1.02;;
75423;SDS011;64005;55.160;36.002;2023-01-04T03:36:46;1.52;;;0.65;;
75423;SDS011;64005;55.160;36.002;2023-01-04T03:39:25;2.00;;;0.85;;
75423;SDS011;64005;55.160;36.002;2023-01-04T03:42:19;12.27;;;1.65;;
75423;SDS011;64005;55.160;36.002;2023-01-04T03:45:10;3.13;;;1.25;;
75423;SDS011;64005;55.160;36.002;2023-01-04T03:48:02;4.13;;;1.42;;
75423;SDS011;64005;55.160;36.002;2023-01-04T03:50:58;6.38;;;2.13;;
75423;SDS011;64005;55.160;36.002;2023-01-04T03:53:44;3.53;;;1.38;;
75423;SDS011;64005;55.160;36.002;2023-01-04T03:56:17;2.22;;;0.88;;
75423;SDS011;64005;55.160;36.002;2023-01-04T03:58:47;3.92;;;1.52;;
75423;SDS011;64005;55.160;36.002;2023-01-04T04:01:16;5.70;;;1.48;;
75423;SDS011;64005;55.160;36.002;2023-01-04T04:03:45;1.73;;;0.75;;
75423;SDS011;64005;55.160;36.002;2023-01-04T04:06:29;1.90;;;0.82;;
75423;SDS011;64005;55.160;36.002;2023-01-04T04:09:16;5.82;;;0.98;;
75423;SDS011;64005;55.160;36.002;2023-01-04T04:11:43;1.00;;;0.52;;
75423;SDS011;64005;55.160;36.002;2023-01-04T04:14:10;7.30;;;1.17;;
75423;SDS011;64005;55.160;36.002;2023-01-04T04:16:38;4.40;;;1.55;;
75423;SDS011;64005;55.160;36.002;2023-01-04T04:19:05;4.50;;;1.52;;
75423;SDS011;64005;55.160;36.002;2023-01-04T04:21:33;2.03;;;1.10;;
75423;SDS011;64005;55.160;36.002;2023-01-04T04:24:00;7.20;;;2.20;;
75423;SDS011;64005;55.160;36.002;2023-01-04T04:26:30;5.53;;;2.00;;
75423;SDS011;64005;55.160;36.002;2023-01-04T04:28:57;4.00;;;1.50;;
75423;SDS011;64005;55.160;36.002;2023-01-04T04:31:25;4.55;;;1.33;;
75423;SDS011;64005;55.160;36.002;2023-01-04T04:33:52;2.35;;;1.15;;
75423;SDS011;64005;55.160;36.002;2023-01-04T04:36:20;3.70;;;1.20;;
75423;SDS011;64005;55.160;36.002;2023-01-04T04:38:47;2.95;;;1.35;;
75423;SDS011;64005;55.160;36.002;2023-01-04T04:41:15;4.43;;;1.58;;
75423;SDS011;64005;55.160;36.002;2023-01-04T04:44:01;4.90;;;1.63;;
75423;SDS011;64005;55.160;36.002;2023-01-04T04:46:28;7.13;;;2.40;;
75423;SDS011;64005;55.160;36.002;2023-01-04T04:48:56;3.85;;;1.27;;
75423;SDS011;64005;55.160;36.002;2023-01-04T04:51:23;9.73;;;2.10;;
75423;SDS011;64005;55.160;36.002;2023-01-04T04:53:51;4.57;;;2.08;;
75423;SDS011;64005;55.160;36.002;2023-01-04T04:56:18;5.32;;;1.60;;
75423;SDS011;64005;55.160;36.002;2023-01-04T04:58:47;3.03;;;1.10;;
75423;SDS011;64005;55.160;36.002;2023-01-04T05:01:16;5.10;;;2.38;;
75423;SDS011;64005;55.160;36.002;2023-01-04T05:03:45;2.70;;;0.95;;
75423;SDS011;64005;55.160;36.002;2023-01-04T05:06:12;3.92;;;1.38;;
75423;SDS011;64005;55.160;36.002;2023-01-04T05:08:40;1.13;;;0.30;;
75423;SDS011;64005;55.160;36.002;2023-01-04T05:11:09;1.73;;;0.95;;
75423;SDS011;64005;55.160;36.002;2023-01-04T05:13:38;3.05;;;1.10;;
75423;SDS011;64005;55.160;36.002;2023-01-04T05:16:05;5.57;;;1.70;;
75423;SDS011;64005;55.160;36.002;2023-01-04T05:18:36;6.47;;;1.27;;
75423;SDS011;64005;55.160;36.002;2023-01-04T05:21:04;6.55;;;1.38;;
75423;SDS011;64005;55.160;36.002;2023-01-04T05:23:31;2.00;;;0.73;;
75423;SDS011;64005;55.160;36.002;2023-01-04T05:25:59;2.60;;;1.13;;
75423;SDS011;64005;55.160;36.002;2023-01-04T05:28:28;4.25;;;1.08;;
75423;SDS011;64005;55.160;36.002;2023-01-04T05:30:55;3.13;;;1.05;;
75423;SDS011;64005;55.160;36.002;2023-01-04T05:33:22;1.45;;;0.70;;
75423;SDS011;64005;55.160;36.002;2023-01-04T05:35:53;3.67;;;1.05;;
75423;SDS011;64005;55.160;36.002;2023-01-04T05:38:22;4.78;;;1.30;;
75423;SDS011;64005;55.160;36.002;2023-01-04T05:40:49;0.50;;;0.22;;
75423;SDS011;64005;55.160;36.002;2023-01-04T05:43:18;3.47;;;0.68;;
75423;SDS011;64005;55.160;36.002;2023-01-04T05:45:46;4.32;;;1.27;;
75423;SDS011;64005;55.160;36.002;2023-01-04T05:48:15;2.78;;;1.05;;
75423;SDS011;64005;55.160;36.002;2023-01-04T05:50:43;2.72;;;0.75;;
75423;SDS011;64005;55.160;36.002;2023-01-04T05:53:13;6.05;;;1.70;;
75423;SDS011;64005;55.160;36.002;2023-01-04T05:55:43;3.28;;;1.23;;
75423;SDS011;64005;55.160;36.002;2023-01-04T05:58:10;4.05;;;1.08;;
75423;SDS011;64005;55.160;36.002;2023-01-04T06:00:38;3.47;;;1.17;;
75423;SDS011;64005;55.160;36.002;2023-01-04T06:03:05;1.52;;;0.75;;
75423;SDS011;64005;55.160;36.002;2023-01-04T06:05:33;3.05;;;1.05;;
75423;SDS011;64005;55.160;36.002;2023-01-04T06:08:00;3.78;;;1.00;;
75423;SDS011;64005;55.160;36.002;2023-01-04T06:10:29;1.70;;;0.70;;
75423;SDS011;64005;55.160;36.002;2023-01-04T06:12:57;5.18;;;1.25;;
75423;SDS011;64005;55.160;36.002;2023-01-04T06:15:24;2.13;;;0.73;;
75423;SDS011;64005;55.160;36.002;2023-01-04T06:17:51;2.50;;;0.68;;
75423;SDS011;64005;55.160;36.002;2023-01-04T06:20:19;2.40;;;0.63;;
75423;SDS011;64005;55.160;36.002;2023-01-04T06:22:46;3.15;;;1.10;;
75423;SDS011;64005;55.160;36.002;2023-01-04T06:25:14;2.30;;;0.50;;
75423;SDS011;64005;55.160;36.002;2023-01-04T06:27:43;2.88;;;0.93;;
75423;SDS011;64005;55.160;36.002;2023-01-04T06:30:10;1.85;;;0.70;;
75423;SDS011;64005;55.160;36.002;2023-01-04T06:32:38;2.47;;;0.95;;
75423;SDS011;64005;55.160;36.002;2023-01-04T06:35:05;2.13;;;0.60;;
75423;SDS011;64005;55.160;36.002;2023-01-04T06:37:33;1.17;;;0.32;;
75423;SDS011;64005;55.160;36.002;2023-01-04T06:40:01;0.65;;;0.22;;
75423;SDS011;64005;55.160;36.002;2023-01-04T06:42:29;4.90;;;1.20;;
75423;SDS011;64005;55.160;36.002;2023-01-04T06:45:13;2.00;;;0.93;;
75423;SDS011;64005;55.160;36.002;2023-01-04T06:47:42;2.47;;;0.80;;
75423;SDS011;64005;55.160;36.002;2023-01-04T06:50:12;1.55;;;0.98;;
75423;SDS011;64005;55.160;36.002;2023-01-04T06:52:39;2.15;;;0.82;;
75423;SDS011;64005;55.160;36.002;2023-01-04T06:55:08;2.58;;;0.70;;
75423;SDS011;64005;55.160;36.002;2023-01-04T06:57:35;3.05;;;1.08;;
75423;SDS011;64005;55.160;36.002;2023-01-04T07:00:03;2.88;;;0.70;;
75423;SDS011;64005;55.160;36.002;2023-01-04T07:02:34;2.33;;;0.70;;
75423;SDS011;64005;55.160;36.002;2023-01-04T07:05:02;3.70;;;0.75;;
75423;SDS011;64005;55.160;36.002;2023-01-04T07:07:30;4.10;;;1.17;;
75423;SDS011;64005;55.160;36.002;2023-01-04T07:10:00;0.60;;;0.20;;
75423;SDS011;64005;55.160;36.002;2023-01-04T07:12:29;2.35;;;0.70;;
75423;SDS011;64005;55.160;36.002;2023-01-04T07:14:56;0.70;;;0.20;;
75423;SDS011;64005;55.160;36.002;2023-01-04T07:17:24;3.35;;;0.90;;
75423;SDS011;64005;55.160;36.002;2023-01-04T07:19:53;3.78;;;0.95;;
75423;SDS011;64005;55.160;36.002;2023-01-04T07:22:20;3.05;;;0.68;;
75423;SDS011;64005;55.160;36.002;2023-01-04T07:24:48;1.10;;;0.25;;
75423;SDS011;64005;55.160;36.002;2023-01-04T07:27:15;1.73;;;0.45;;
75423;SDS011;64005;55.160;36.002;2023-01-04T07:29:43;4.30;;;1.13;;
75423;SDS011;64005;55.160;36.002;2023-01-04T07:32:11;2.63;;;0.77;;
75423;SDS011;64005;55.160;36.002;2023-01-04T07:34:38;3.60;;;1.33;;
75423;SDS011;64005;55.160;36.002;2023-01-04T07:37:08;4.20;;;1.38;;
75423;SDS011;64005;55.160;36.002;2023-01-04T07:39:37;4.55;;;1.58;;
75423;SDS011;64005;55.160;36.002;2023-01-04T07:42:04;3.88;;;1.02;;
75423;SDS011;64005;55.160;36.002;2023-01-04T07:44:32;4.78;;;1.55;;
75423;SDS011;64005;55.160;36.002;2023-01-04T07:46:59;4.78;;;1.55;;
75423;SDS011;64005;55.160;36.002;2023-01-04T07:49:27;2.80;;;1.05;;
75423;SDS011;64005;55.160;36.002;2023-01-04T07:51:55;4.18;;;1.60;;
75423;SDS011;64005;55.160;36.002;2023-01-04T07:54:24;4.40;;;1.27;;
75423;SDS011;64005;55.160;36.002;2023-01-04T07:56:52;4.53;;;1.13;;
75423;SDS011;64005;55.160;36.002;2023-01-04T07:59:20;4.75;;;1.70;;
75423;SDS011;64005;55.160;36.002;2023-01-04T08:01:47;2.78;;;1.20;;
75423;SDS011;64005;55.160;36.002;2023-01-04T08:04:16;6.43;;;2.47;;
75423;SDS011;64005;55.160;36.002;2023-01-04T08:06:47;5.22;;;1.88;;
75423;SDS011;64005;55.160;36.002;2023-01-04T08:09:14;2.55;;;1.25;;
75423;SDS011;64005;55.160;36.002;2023-01-04T08:11:44;5.47;;;2.00;;
75423;SDS011;64005;55.160;36.002;2023-01-04T08:14:12;6.90;;;2.22;;
75423;SDS011;64005;55.160;36.002;2023-01-04T08:16:40;7.32;;;2.70;;
75423;SDS011;64005;55.160;36.002;2023-01-04T08:19:10;6.82;;;2.63;;
75423;SDS011;64005;55.160;36.002;2023-01-04T08:21:39;7.57;;;1.90;;
75423;SDS011;64005;55.160;36.002;2023-01-04T08:24:08;6.75;;;2.30;;
75423;SDS011;64005;55.160;36.002;2023-01-04T08:26:38;2.47;;;1.10;;
75423;SDS011;64005;55.160;36.002;2023-01-04T08:29:07;2.22;;;1.38;;
75423;SDS011;64005;55.160;36.002;2023-01-04T08:31:35;4.55;;;2.20;;
75423;SDS011;64005;55.160;36.002;2023-01-04T08:34:04;3.45;;;1.25;;
75423;SDS011;64005;55.160;36.002;2023-01-04T08:36:34;6.95;;;2.72;;
75423;SDS011;64005;55.160;36.002;2023-01-04T08:39:03;3.13;;;1.67;;
75423;SDS011;64005;55.160;36.002;2023-01-04T08:41:32;3.88;;;1.25;;
75423;SDS011;64005;55.160;36.002;2023-01-04T08:44:16;4.47;;;1.63;;
75423;SDS011;64005;55.160;36.002;2023-01-04T08:46:44;2.60;;;0.88;;
75423;SDS011;64005;55.160;36.002;2023-01-04T08:49:12;4.53;;;1.65;;
75423;SDS011;64005;55.160;36.002;2023-01-04T08:51:39;6.82;;;0.98;;
75423;SDS011;64005;55.160;36.002;2023-01-04T08:54:07;5.70;;;1.65;;
75423;SDS011;64005;55.160;36.002;2023-01-04T08:56:35;3.28;;;1.38;;
75423;SDS011;64005;55.160;36.002;2023-01-04T08:59:03;4.97;;;1.92;;
75423;SDS011;64005;55.160;36.002;2023-01-04T09:01:32;4.65;;;2.10;;
75423;SDS011;64005;55.160;36.002;2023-01-04T09:04:00;5.57;;;1.65;;
75423;SDS011;64005;55.160;36.002;2023-01-04T09:06:28;3.67;;;1.45;;
75423;SDS011;64005;55.160;36.002;2023-01-04T09:08:56;4.65;;;1.80;;
75423;SDS011;64005;55.160;36.002;2023-01-04T09:11:23;2.92;;;0.90;;
75423;SDS011;64005;55.160;36.002;2023-01-04T09:13:53;2.72;;;1.05;;
75423;SDS011;64005;55.160;36.002;2023-01-04T09:16:21;1.70;;;1.25;;
75423;SDS011;64005;55.160;36.002;2023-01-04T09:18:50;3.13;;;1.23;;
75423;SDS011;64005;55.160;36.002;2023-01-04T09:21:18;5.30;;;1.98;;
75423;SDS011;64005;55.160;36.002;2023-01-04T09:23:47;7.88;;;1.92;;
75423;SDS011;64005;55.160;36.002;2023-01-04T09:26:15;4.90;;;2.17;;
75423;SDS011;64005;55.160;36.002;2023-01-04T09:28:45;5.82;;;1.60;;
75423;SDS011;64005;55.160;36.002;2023-01-04T09:31:13;3.75;;;1.67;;
75423;SDS011;64005;55.160;36.002;2023-01-04T09:33:43;6.68;;;1.77;;
75423;SDS011;64005;55.160;36.002;2023-01-04T09:36:13;4.18;;;1.50;;
75423;SDS011;64005;55.160;36.002;2023-01-04T09:38:42;1.58;;;0.47;;
75423;SDS011;64005;55.160;36.002;2023-01-04T09:41:13;5.60;;;1.75;;
75423;SDS011;64005;55.160;36.002;2023-01-04T09:43:50;4.55;;;1.70;;
75423;SDS011;64005;55.160;36.002;2023-01-04T09:46:22;6.93;;;2.17;;
75423;SDS011;64005;55.160;36.002;2023-01-04T09:48:55;3.83;;;1.40;;
75423;SDS011;64005;55.160;36.002;2023-01-04T09:51:33;3.25;;;1.52;;
75423;SDS011;64005;55.160;36.002;2023-01-04T09:54:06;2.33;;;0.75;;
75423;SDS011;64005;55.160;36.002;2023-01-04T09:56:41;4.68;;;1.52;;
75423;SDS011;64005;55.160;36.002;2023-01-04T09:59:14;3.00;;;1.33;;
75423;SDS011;64005;55.160;36.002;2023-01-04T10:01:47;5.40;;;1.75;;
75423;SDS011;64005;55.160;36.002;2023-01-04T10:04:21;4.40;;;2.13;;
75423;SDS011;64005;55.160;36.002;2023-01-04T10:06:52;3.83;;;0.90;;
75423;SDS011;64005;55.160;36.002;2023-01-04T10:09:20;1.15;;;0.50;;
75423;SDS011;64005;55.160;36.002;2023-01-04T10:11:52;0.98;;;0.73;;
75423;SDS011;64005;55.160;36.002;2023-01-04T10:14:37;4.93;;;1.50;;
75423;SDS011;64005;55.160;36.002;2023-01-04T10:17:21;2.53;;;0.73;;
75423;SDS011;64005;55.160;36.002;2023-01-04T10:23:01;2.08;;;0.68;;
75423;SDS011;64005;55.160;36.002;2023-01-04T10:25:38;2.75;;;0.80;;
75423;SDS011;64005;55.160;36.002;2023-01-04T10:31:11;1.25;;;0.45;;
75423;SDS011;64005;55.160;36.002;2023-01-04T10:33:45;0.65;;;0.22;;
75423;SDS011;64005;55.160;36.002;2023-01-04T10:36:16;3.17;;;1.00;;
75423;SDS011;64005;55.160;36.002;2023-01-04T10:38:46;1.98;;;0.82;;
75423;SDS011;64005;55.160;36.002;2023-01-04T10:41:21;2.33;;;0.70;;
75423;SDS011;64005;55.160;36.002;2023-01-04T10:43:55;3.40;;;1.02;;
75423;SDS011;64005;55.160;36.002;2023-01-04T10:46:32;3.50;;;1.17;;
75423;SDS011;64005;55.160;36.002;2023-01-04T10:49:06;5.50;;;1.33;;
75423;SDS011;64005;55.160;36.002;2023-01-04T10:51:39;2.95;;;1.30;;
75423;SDS011;64005;55.160;36.002;2023-01-04T10:54:15;4.00;;;1.25;;
75423;SDS011;64005;55.160;36.002;2023-01-04T10:56:49;2.95;;;1.20;;
75423;SDS011;64005;55.160;36.002;2023-01-04T10:59:22;5.75;;;1.52;;
75423;SDS011;64005;55.160;36.002;2023-01-04T11:01:55;2.85;;;1.10;;
75423;SDS011;64005;55.160;36.002;2023-01-04T11:04:27;3.92;;;1.65;;
75423;SDS011;64005;55.160;36.002;2023-01-04T11:07:01;5.68;;;2.05;;
75423;SDS011;64005;55.160;36.002;2023-01-04T11:09:37;4.30;;;1.48;;
75423;SDS011;64005;55.160;36.002;2023-01-04T11:12:08;4.88;;;1.80;;
75423;SDS011;64005;55.160;36.002;2023-01-04T11:14:39;3.03;;;1.27;;
75423;SDS011;64005;55.160;36.002;2023-01-04T11:17:08;6.50;;;1.85;;
75423;SDS011;64005;55.160;36.002;2023-01-04T11:19:37;5.25;;;1.80;;
75423;SDS011;64005;55.160;36.002;2023-01-04T11:22:08;4.75;;;1.60;;
75423;SDS011;64005;55.160;36.002;2023-01-04T11:24:41;4.40;;;2.10;;
75423;SDS011;64005;55.160;36.002;2023-01-04T11:27:12;2.47;;;0.93;;
75423;SDS011;64005;55.160;36.002;2023-01-04T11:29:44;3.90;;;1.20;;
75423;SDS011;64005;55.160;36.002;2023-01-04T11:32:19;6.95;;;1.77;;
75423;SDS011;64005;55.160;36.002;2023-01-04T11:34:54;2.92;;;1.17;;
75423;SDS011;64005;55.160;36.002;2023-01-04T11:37:23;4.05;;;1.73;;
75423;SDS011;64005;55.160;36.002;2023-01-04T11:40:01;10.82;;;1.77;;
75423;SDS011;64005;55.160;36.002;2023-01-04T11:42:46;5.25;;;1.70;;
75423;SDS011;64005;55.160;36.002;2023-01-04T11:45:18;5.78;;;2.00;;
75423;SDS011;64005;55.160;36.002;2023-01-04T11:47:51;5.10;;;1.77;;
75423;SDS011;64005;55.160;36.002;2023-01-04T11:53:23;5.05;;;1.77;;
75423;SDS011;64005;55.160;36.002;2023-01-04T11:56:09;4.65;;;1.73;;
75423;SDS011;64005;55.160;36.002;2023-01-04T11:58:39;3.95;;;1.40;;
75423;SDS011;64005;55.160;36.002;2023-01-04T12:01:17;5.00;;;1.25;;
75423;SDS011;64005;55.160;36.002;2023-01-04T12:03:48;2.22;;;0.95;;
75423;SDS011;64005;55.160;36.002;2023-01-04T12:06:16;4.45;;;1.52;;
75423;SDS011;64005;55.160;36.002;2023-01-04T12:08:46;3.45;;;1.38;;
75423;SDS011;64005;55.160;36.002;2023-01-04T12:11:28;6.05;;;2.28;;
75423;SDS011;64005;55.160;36.002;2023-01-04T12:14:00;4.38;;;1.60;;
75423;SDS011;64005;55.160;36.002;2023-01-04T12:16:33;6.90;;;1.90;;
75423;SDS011;64005;55.160;36.002;2023-01-04T12:19:12;2.70;;;1.10;;
75423;SDS011;64005;55.160;36.002;2023-01-04T12:24:11;3.33;;;1.20;;
75423;SDS011;64005;55.160;36.002;2023-01-04T12:26:45;5.03;;;1.63;;
75423;SDS011;64005;55.160;36.002;2023-01-04T12:29:33;7.68;;;2.42;;
75423;SDS011;64005;55.160;36.002;2023-01-04T12:45:00;3.55;;;1.38;;
75423;SDS011;64005;55.160;36.002;2023-01-04T12:47:38;1.98;;;0.65;;
75423;SDS011;64005;55.160;36.002;2023-01-04T12:50:24;5.00;;;1.67;;
75423;SDS011;64005;55.160;36.002;2023-01-04T12:52:56;4.35;;;1.20;;
75423;SDS011;64005;55.160;36.002;2023-01-04T13:01:18;4.68;;;1.95;;
75423;SDS011;64005;55.160;36.002;2023-01-04T13:03:51;4.07;;;1.70;;
75423;SDS011;64005;55.160;36.002;2023-01-04T13:06:21;6.15;;;1.83;;
75423;SDS011;64005;55.160;36.002;2023-01-04T13:08:50;4.22;;;1.58;;
75423;SDS011;64005;55.160;36.002;2023-01-04T13:11:37;2.83;;;1.25;;
75423;SDS011;64005;55.160;36.002;2023-01-04T13:14:24;7.93;;;2.97;;
75423;SDS011;64005;55.160;36.002;2023-01-04T13:17:02;2.17;;;0.77;;
75423;SDS011;64005;55.160;36.002;2023-01-04T13:19:42;6.00;;;1.88;;
75423;SDS011;64005;55.160;36.002;2023-01-04T13:22:14;4.28;;;1.60;;
75423;SDS011;64005;55.160;36.002;2023-01-04T13:24:46;1.25;;;0.95;;
75423;SDS011;64005;55.160;36.002;2023-01-04T13:27:16;2.83;;;0.90;;
75423;SDS011;64005;55.160;36.002;2023-01-04T13:29:45;2.63;;;0.98;;
75423;SDS011;64005;55.160;36.002;2023-01-04T13:32:17;4.78;;;1.58;;
75423;SDS011;64005;55.160;36.002;2023-01-04T13:34:50;4.07;;;1.33;;
75423;SDS011;64005;55.160;36.002;2023-01-04T13:37:27;5.70;;;1.83;;
75423;SDS011;64005;55.160;36.002;2023-01-04T13:40:00;4.72;;;1.40;;
75423;SDS011;64005;55.160;36.002;2023-01-04T13:42:41;5.30;;;1.95;;
75423;SDS011;64005;55.160;36.002;2023-01-04T13:47:57;4.40;;;1.70;;
75423;SDS011;64005;55.160;36.002;2023-01-04T13:50:30;5.30;;;1.50;;
75423;SDS011;64005;55.160;36.002;2023-01-04T13:53:00;3.20;;;0.75;;
75423;SDS011;64005;55.160;36.002;2023-01-04T13:55:29;5.85;;;1.85;;
75423;SDS011;64005;55.160;36.002;2023-01-04T13:57:58;4.78;;;1.88;;
75423;SDS011;64005;55.160;36.002;2023-01-04T14:00:28;3.42;;;1.80;;
75423;SDS011;64005;55.160;36.002;2023-01-04T14:03:06;4.10;;;0.98;;
75423;SDS011;64005;55.160;36.002;2023-01-04T14:05:44;4.28;;;1.63;;
75423;SDS011;64005;55.160;36.002;2023-01-04T14:08:17;9.57;;;2.97;;
75423;SDS011;64005;55.160;36.002;2023-01-04T14:10:48;3.60;;;1.17;;
75423;SDS011;64005;55.160;36.002;2023-01-04T14:13:16;4.30;;;1.38;;
75423;SDS011;64005;55.160;36.002;2023-01-04T14:15:45;3.58;;;1.48;;
75423;SDS011;64005;55.160;36.002;2023-01-04T14:18:24;4.57;;;1.75;;
75423;SDS011;64005;55.160;36.002;2023-01-04T14:20:53;5.25;;;2.38;;
75423;SDS011;64005;55.160;36.002;2023-01-04T14:23:24;4.20;;;2.17;;
75423;SDS011;64005;55.160;36.002;2023-01-04T14:25:53;6.43;;;1.83;;
75423;SDS011;64005;55.160;36.002;2023-01-04T14:28:24;7.82;;;2.08;;
75423;SDS011;64005;55.160;36.002;2023-01-04T14:31:11;3.88;;;1.38;;
75423;SDS011;64005;55.160;36.002;2023-01-04T14:33:54;8.38;;;1.98;;
75423;SDS011;64005;55.160;36.002;2023-01-04T14:36:22;4.55;;;1.52;;
75423;SDS011;64005;55.160;36.002;2023-01-04T14:38:54;4.10;;;1.63;;
75423;SDS011;64005;55.160;36.002;2023-01-04T14:41:34;7.97;;;2.92;;
75423;SDS011;64005;55.160;36.002;2023-01-04T14:44:11;5.88;;;1.65;;
75423;SDS011;64005;55.160;36.002;2023-01-04T14:46:41;3.35;;;1.42;;
75423;SDS011;64005;55.160;36.002;2023-01-04T14:49:12;4.40;;;1.73;;
75423;SDS011;64005;55.160;36.002;2023-01-04T14:51:40;3.65;;;1.23;;
75423;SDS011;64005;55.160;36.002;2023-01-04T14:54:10;3.60;;;1.33;;
75423;SDS011;64005;55.160;36.002;2023-01-04T14:56:38;3.75;;;1.17;;
75423;SDS011;64005;55.160;36.002;2023-01-04T14:59:06;5.30;;;1.45;;
75423;SDS011;64005;55.160;36.002;2023-01-04T15:01:34;4.55;;;1.60;;
75423;SDS011;64005;55.160;36.002;2023-01-04T15:04:01;3.63;;;1.27;;
75423;SDS011;64005;55.160;36.002;2023-01-04T15:06:31;2.90;;;1.40;;
75423;SDS011;64005;55.160;36.002;2023-01-04T15:08:58;3.92;;;1.10;;
75423;SDS011;64005;55.160;36.002;2023-01-04T15:11:26;5.20;;;1.45;;
75423;SDS011;64005;55.160;36.002;2023-01-04T15:13:55;3.63;;;1.08;;
75423;SDS011;64005;55.160;36.002;2023-01-04T15:16:23;3.90;;;1.30;;
75423;SDS011;64005;55.160;36.002;2023-01-04T15:18:50;6.88;;;1.77;;
75423;SDS011;64005;55.160;36.002;2023-01-04T15:21:18;4.50;;;1.20;;
75423;SDS011;64005;55.160;36.002;2023-01-04T15:23:47;3.78;;;1.50;;
75423;SDS011;64005;55.160;36.002;2023-01-04T15:26:15;5.32;;;0.77;;
75423;SDS011;64005;55.160;36.002;2023-01-04T15:28:43;6.85;;;1.90;;
75423;SDS011;64005;55.160;36.002;2023-01-04T15:31:13;3.03;;;1.25;;
75423;SDS011;64005;55.160;36.002;2023-01-04T15:33:41;4.00;;;1.52;;
75423;SDS011;64005;55.160;36.002;2023-01-04T15:36:10;12.32;;;4.60;;
75423;SDS011;64005;55.160;36.002;2023-01-04T15:38:39;3.10;;;1.17;;
75423;SDS011;64005;55.160;36.002;2023-01-04T15:43:38;3.45;;;1.70;;
75423;SDS011;64005;55.160;36.002;2023-01-04T15:46:06;4.05;;;1.55;;